createdAt,value
2018-12-08T08:24:10.901Z,6.80
2018-12-08T08:27:15.744Z,6.80
2018-12-08T08:30:20.304Z,6.80
2018-12-08T08:33:24.523Z,6.80
2018-12-08T08:36:28.807Z,6.90
2018-12-08T08:39:33.019Z,6.90
2018-12-08T08:42:37.348Z,6.90
2018-12-08T08:45:41.550Z,7.00
2018-12-08T08:48:45.787Z,7.10
2018-12-08T08:51:49.987Z,7.20
2018-12-08T08:54:54.208Z,7.30
2018-12-08T08:57:58.399Z,7.30
2018-12-08T09:01:02.596Z,7.30
2018-12-08T09:04:06.914Z,7.30
2018-12-08T09:07:11.279Z,7.30
2018-12-08T09:10:15.627Z,7.20
2018-12-08T09:13:19.900Z,7.30
2018-12-08T09:16:24.095Z,7.30
2018-12-08T09:19:28.400Z,7.20
2018-12-08T09:22:32.632Z,7.20
2018-12-08T09:25:36.935Z,7.20
2018-12-08T09:28:41.328Z,7.10
2018-12-08T09:31:45.643Z,7.00
2018-12-08T09:34:49.839Z,6.90
2018-12-08T09:37:54.173Z,6.90
2018-12-08T09:40:58.415Z,6.90
2018-12-08T09:44:02.718Z,6.90
2018-12-08T09:47:07.000Z,6.90
2018-12-08T09:50:11.408Z,7.00
2018-12-08T09:53:18.627Z,7.00
2018-12-08T09:56:22.896Z,7.00
2018-12-08T09:59:27.106Z,7.00
2018-12-08T10:02:31.306Z,7.00
2018-12-08T10:05:35.748Z,7.00
2018-12-08T10:08:40.015Z,7.00
2018-12-08T10:11:44.403Z,7.00
2018-12-08T10:14:48.667Z,7.10
2018-12-08T10:17:52.879Z,7.00
2018-12-08T10:20:57.232Z,7.00
2018-12-08T10:24:01.573Z,7.20
2018-12-08T10:27:05.775Z,7.10
2018-12-08T10:30:11.046Z,7.20
2018-12-08T10:33:15.295Z,7.30
2018-12-08T10:36:19.586Z,7.30
2018-12-08T10:39:23.854Z,7.30
2018-12-08T10:42:28.139Z,7.30
2018-12-08T10:45:32.401Z,7.40
2018-12-08T10:48:36.696Z,7.40
2018-12-08T10:51:40.958Z,7.50
2018-12-08T10:54:45.219Z,7.60
2018-12-08T10:57:49.422Z,7.60
2018-12-08T11:01:30.895Z,7.60
2018-12-08T11:04:35.216Z,7.70
2018-12-08T11:07:39.524Z,7.90
2018-12-08T11:10:43.837Z,7.90
2018-12-08T11:13:48.125Z,8.00
2018-12-08T11:16:52.413Z,8.00
2018-12-08T11:19:56.624Z,8.00
2018-12-08T11:23:00.826Z,8.00
2018-12-08T11:26:05.192Z,8.10
2018-12-08T11:29:09.426Z,8.00
2018-12-08T11:32:13.679Z,8.00
2018-12-08T11:35:17.958Z,8.10
2018-12-08T11:38:22.167Z,8.10
2018-12-08T11:41:26.385Z,8.10
2018-12-08T11:44:30.885Z,8.00
2018-12-08T11:47:35.083Z,8.10
2018-12-08T11:50:39.360Z,8.10
2018-12-08T11:53:43.572Z,8.00
2018-12-08T11:56:47.875Z,8.00
2018-12-08T11:59:52.151Z,8.10
2018-12-08T12:02:56.548Z,8.10
2018-12-08T12:06:00.827Z,8.10
2018-12-08T12:09:08.282Z,8.10
2018-12-08T12:12:12.495Z,8.10
2018-12-08T12:15:16.869Z,8.20
2018-12-08T12:18:21.118Z,8.20
2018-12-08T12:21:25.411Z,8.30
2018-12-08T12:24:29.672Z,8.30
2018-12-08T12:27:33.999Z,8.20
2018-12-08T12:30:38.431Z,8.20
2018-12-08T12:33:42.735Z,8.20
2018-12-08T12:36:47.033Z,8.20
2018-12-08T12:39:51.395Z,8.30
2018-12-08T12:42:55.671Z,8.30
2018-12-08T12:45:59.882Z,8.30
2018-12-08T12:49:04.284Z,8.30
2018-12-08T12:52:08.559Z,8.30
2018-12-08T12:55:12.902Z,8.30
2018-12-08T12:58:17.147Z,8.30
2018-12-08T13:01:21.400Z,8.30
2018-12-08T13:04:25.694Z,8.30
2018-12-08T13:07:29.982Z,8.30
2018-12-08T13:10:34.239Z,8.30
2018-12-08T13:13:38.498Z,8.40
2018-12-08T13:16:43.084Z,8.50
2018-12-08T13:19:47.349Z,8.50
2018-12-08T13:22:51.583Z,8.40
2018-12-08T13:25:55.777Z,8.40
2018-12-08T13:28:59.988Z,8.40
2018-12-08T13:32:04.279Z,8.50
2018-12-08T13:35:10.840Z,8.50
2018-12-08T13:38:15.168Z,8.40
2018-12-08T13:41:19.498Z,8.40
2018-12-08T13:44:40.158Z,8.40
2018-12-08T13:47:45.148Z,8.30
2018-12-08T13:50:49.803Z,8.20
2018-12-08T13:53:54.003Z,8.10
2018-12-08T13:56:58.216Z,8.00
2018-12-08T14:00:02.655Z,8.00
2018-12-08T14:03:07.041Z,8.00
2018-12-08T14:06:11.295Z,7.90
2018-12-08T14:09:15.514Z,7.80
2018-12-08T14:12:19.775Z,7.80
2018-12-08T14:15:23.963Z,7.90
2018-12-08T14:18:28.154Z,7.90
2018-12-08T14:21:32.480Z,8.00
2018-12-08T14:24:36.658Z,8.20
2018-12-08T14:27:41.014Z,8.10
2018-12-08T14:30:45.262Z,8.10
2018-12-08T14:33:49.567Z,8.10
2018-12-08T14:36:53.774Z,8.10
2018-12-08T14:39:58.044Z,8.00
2018-12-08T14:43:02.392Z,8.00
2018-12-08T14:46:06.673Z,7.90
2018-12-08T14:49:11.026Z,7.90
2018-12-08T14:52:15.310Z,7.80
2018-12-08T14:55:19.625Z,7.70
2018-12-08T14:58:23.823Z,7.60
2018-12-08T15:01:28.320Z,7.70
2018-12-08T15:04:32.599Z,7.70
2018-12-08T15:07:37.044Z,7.70
2018-12-08T15:10:41.391Z,7.60
2018-12-08T15:13:45.723Z,7.70
2018-12-08T15:16:49.965Z,7.80
2018-12-08T15:19:54.287Z,7.90
2018-12-08T15:22:58.588Z,8.00
2018-12-08T15:26:05.913Z,8.00
2018-12-08T15:29:11.914Z,8.00
2018-12-08T15:32:16.350Z,8.00
2018-12-08T15:35:20.855Z,8.00
2018-12-08T15:38:25.108Z,8.00
2018-12-08T15:41:32.229Z,7.90
2018-12-08T15:44:37.171Z,8.00
2018-12-08T15:47:41.791Z,8.00
2018-12-08T15:50:46.278Z,8.00
2018-12-08T15:53:50.617Z,7.90
2018-12-08T15:56:54.868Z,7.90
2018-12-08T15:59:59.244Z,7.80
2018-12-08T16:03:03.462Z,7.80
2018-12-08T16:06:07.803Z,7.90
2018-12-08T16:09:12.146Z,7.90
2018-12-08T16:12:16.528Z,7.80
2018-12-08T16:15:20.883Z,7.70
2018-12-08T16:18:25.152Z,7.80
2018-12-08T16:21:29.380Z,7.80
2018-12-08T16:24:33.711Z,7.90
2018-12-08T16:27:37.965Z,8.00
2018-12-08T16:30:42.187Z,8.10
2018-12-08T16:33:46.478Z,8.10
2018-12-08T16:36:50.675Z,8.10
2018-12-08T16:39:54.889Z,8.20
2018-12-08T16:42:59.250Z,8.10
2018-12-08T16:46:03.642Z,8.20
2018-12-08T16:49:07.950Z,8.20
2018-12-08T16:52:12.272Z,8.20
2018-12-08T16:55:16.666Z,8.20
2018-12-08T16:58:20.962Z,8.20
2018-12-08T17:01:25.421Z,8.20
2018-12-08T17:04:29.815Z,8.20
2018-12-08T17:07:34.203Z,8.20
2018-12-08T17:10:38.511Z,8.20
2018-12-08T17:13:42.748Z,8.10
2018-12-08T17:16:47.094Z,8.20
2018-12-08T17:19:51.489Z,8.10
2018-12-08T17:22:55.823Z,8.10
2018-12-08T17:26:00.172Z,8.10
2018-12-08T17:29:06.047Z,8.10
2018-12-08T17:32:10.703Z,8.10
2018-12-08T17:35:15.009Z,8.10
2018-12-08T17:38:19.215Z,8.10
2018-12-08T17:41:23.576Z,8.20
2018-12-08T17:44:27.812Z,8.10
2018-12-08T17:47:32.079Z,8.20
2018-12-08T17:50:36.346Z,8.20
2018-12-08T17:53:40.663Z,8.10
2018-12-08T17:56:44.854Z,8.10
2018-12-08T17:59:49.252Z,8.10
2018-12-08T18:02:53.609Z,8.20
2018-12-08T18:05:58.111Z,8.30
2018-12-08T18:09:02.466Z,8.20
2018-12-08T18:12:07.372Z,8.20
2018-12-08T18:15:11.824Z,8.10
2018-12-08T18:18:16.193Z,8.10
2018-12-08T18:21:20.499Z,8.10
2018-12-08T18:24:25.052Z,8.00
2018-12-08T18:27:29.457Z,8.00
2018-12-08T18:30:33.773Z,8.10
2018-12-08T18:33:37.986Z,8.00
2018-12-08T18:36:42.302Z,8.00
2018-12-08T18:39:46.523Z,8.00
2018-12-08T18:42:50.786Z,7.80
2018-12-08T18:45:55.159Z,7.80
2018-12-08T18:48:59.532Z,7.70
2018-12-08T18:52:03.886Z,7.70
2018-12-08T18:55:08.379Z,7.70
2018-12-08T18:58:12.688Z,7.60
2018-12-08T19:01:17.056Z,7.60
2018-12-08T19:04:21.339Z,7.60
2018-12-08T19:07:25.566Z,7.70
2018-12-08T19:10:29.921Z,7.70
2018-12-08T19:13:34.250Z,7.70
2018-12-08T19:16:38.451Z,7.70
2018-12-08T19:19:42.776Z,7.80
2018-12-08T19:22:47.106Z,7.70
2018-12-08T19:25:51.402Z,7.80
2018-12-08T19:28:55.705Z,7.90
2018-12-08T19:31:59.905Z,7.80
2018-12-08T19:35:04.290Z,7.80
2018-12-08T19:38:08.523Z,7.80
2018-12-08T19:41:12.872Z,7.90
2018-12-08T19:44:17.070Z,8.00
2018-12-08T19:47:21.389Z,7.90
2018-12-08T19:50:25.670Z,7.70
2018-12-08T19:53:29.974Z,7.70
2018-12-08T19:56:34.232Z,7.70
2018-12-08T19:59:38.703Z,7.70
2018-12-08T20:02:42.940Z,7.60
2018-12-08T20:05:47.146Z,7.60
2018-12-08T20:08:51.548Z,7.60
2018-12-08T20:11:55.775Z,7.70
2018-12-08T20:15:00.001Z,7.80
2018-12-08T20:18:04.271Z,7.80
2018-12-08T20:21:08.710Z,7.80
2018-12-08T20:24:13.012Z,7.70
2018-12-08T20:27:17.251Z,7.70
2018-12-08T20:30:21.552Z,7.60
2018-12-08T20:33:25.789Z,7.60
2018-12-08T20:36:30.052Z,7.60
2018-12-08T20:39:34.278Z,7.60
2018-12-08T20:42:38.511Z,7.50
2018-12-08T20:45:42.737Z,7.50
2018-12-08T20:48:46.947Z,7.60
2018-12-08T20:51:51.308Z,7.60
2018-12-08T20:54:55.674Z,7.60
2018-12-08T20:58:00.055Z,7.50
2018-12-08T21:01:04.339Z,7.50
2018-12-08T21:04:08.543Z,7.50
2018-12-08T21:07:12.818Z,7.50
2018-12-08T21:10:17.144Z,7.50
2018-12-08T21:13:21.407Z,7.50
2018-12-08T21:16:25.598Z,7.60
2018-12-08T21:19:29.931Z,7.60
2018-12-08T21:22:34.364Z,7.60
2018-12-08T21:25:38.592Z,7.60
2018-12-08T21:28:42.792Z,7.60
2018-12-08T21:31:47.000Z,7.60
2018-12-08T21:34:51.309Z,7.70
2018-12-08T21:37:55.523Z,7.80
2018-12-08T21:40:59.721Z,7.80
2018-12-08T21:44:04.018Z,7.70
2018-12-08T21:47:08.312Z,7.70
2018-12-08T21:50:12.579Z,7.70
2018-12-08T21:53:16.790Z,7.70
2018-12-08T21:56:21.002Z,7.70
2018-12-08T21:59:25.309Z,7.70
2018-12-08T22:02:29.727Z,7.70
2018-12-08T22:05:34.072Z,7.70
2018-12-08T22:08:38.304Z,7.70
2018-12-08T22:11:42.638Z,7.70
2018-12-08T22:14:52.259Z,7.70
2018-12-08T22:17:56.464Z,7.60
2018-12-08T22:21:00.647Z,7.60
2018-12-08T22:24:05.064Z,7.50
2018-12-08T22:27:09.283Z,7.40
2018-12-08T22:30:13.515Z,7.40
2018-12-08T22:33:17.735Z,7.40
2018-12-08T22:36:21.951Z,7.40
2018-12-08T22:39:26.247Z,7.30
2018-12-08T22:42:30.550Z,7.30
2018-12-08T22:45:34.824Z,7.20
2018-12-08T22:48:39.042Z,7.20
2018-12-08T22:51:43.311Z,7.20
2018-12-08T22:54:47.682Z,7.20
2018-12-08T22:57:51.887Z,7.20
2018-12-08T23:00:56.264Z,7.20
2018-12-08T23:04:00.448Z,7.20
2018-12-08T23:07:06.754Z,7.20
2018-12-08T23:10:11.059Z,7.20
2018-12-08T23:13:15.380Z,7.10
2018-12-08T23:16:19.582Z,7.10
2018-12-08T23:19:23.807Z,7.10
2018-12-08T23:22:28.040Z,7.00
2018-12-08T23:25:32.466Z,7.00
2018-12-08T23:28:36.899Z,7.00
2018-12-08T23:31:41.342Z,6.90
2018-12-08T23:34:45.642Z,6.90
2018-12-08T23:37:49.917Z,7.00
2018-12-08T23:40:54.219Z,6.90
2018-12-08T23:43:58.408Z,6.90
2018-12-08T23:47:02.691Z,6.90
2018-12-08T23:50:09.153Z,6.90
2018-12-08T23:53:13.359Z,6.90
2018-12-08T23:56:17.571Z,6.90
2018-12-08T23:59:21.935Z,6.90
